createdAt,value
2022-08-27T00:04:24.011Z,29.13
2022-08-27T00:10:27.859Z,24.90
2022-08-27T00:16:30.630Z,29.33
2022-08-27T00:22:33.353Z,31.50
2022-08-27T00:28:35.718Z,28.60
2022-08-27T00:34:37.732Z,29.27
2022-08-27T00:40:40.611Z,30.07
2022-08-27T00:46:50.067Z,42.23
2022-08-27T00:52:57.456Z,33.23
2022-08-27T00:59:02.323Z,37.60
2022-08-27T01:05:12.050Z,33.60
2022-08-27T01:11:14.316Z,33.77
2022-08-27T01:17:17.130Z,42.10
2022-08-27T01:23:52.447Z,34.57
2022-08-27T01:29:54.786Z,42.70
2022-08-27T01:35:56.825Z,36.63
2022-08-27T01:42:09.866Z,36.33
2022-08-27T01:48:12.173Z,37.70
2022-08-27T01:54:14.344Z,34.50
2022-08-27T02:00:30.086Z,34.73
2022-08-27T02:06:32.100Z,35.37
2022-08-27T02:12:34.140Z,38.70
2022-08-27T02:18:38.471Z,41.70
2022-08-27T02:24:43.827Z,32.03
2022-08-27T02:30:45.831Z,31.20
2022-08-27T02:36:47.898Z,30.00
2022-08-27T02:42:50.557Z,26.70
2022-08-27T02:48:52.590Z,32.93
2022-08-27T02:54:54.583Z,30.80
2022-08-27T03:00:57.223Z,32.77
2022-08-27T03:06:59.287Z,34.97
2022-08-27T03:13:01.323Z,33.90
2022-08-27T03:19:07.303Z,37.10
2022-08-27T03:25:10.799Z,33.07
2022-08-27T03:31:27.161Z,39.13
2022-08-27T03:37:29.374Z,40.73
2022-08-27T03:43:31.751Z,29.60
2022-08-27T03:49:33.858Z,34.43
2022-08-27T03:55:35.938Z,41.37
2022-08-27T04:01:38.543Z,28.63
2022-08-27T04:07:42.182Z,35.57
2022-08-27T04:13:44.447Z,34.00
2022-08-27T04:19:46.449Z,30.90
2022-08-27T04:25:48.920Z,25.53
2022-08-27T04:31:51.472Z,27.57
2022-08-27T04:37:53.557Z,30.63
2022-08-27T04:43:58.880Z,28.07
2022-08-27T04:50:00.924Z,26.00
2022-08-27T04:56:06.487Z,28.63
2022-08-27T05:02:16.627Z,33.03
2022-08-27T05:08:19.155Z,27.30
2022-08-27T05:14:22.283Z,26.07
2022-08-27T05:20:24.273Z,21.70
2022-08-27T05:26:28.192Z,23.57
2022-08-27T05:32:30.984Z,20.97
2022-08-27T05:38:34.236Z,25.87
2022-08-27T05:44:41.002Z,19.10
2022-08-27T05:50:45.203Z,15.40
2022-08-27T05:56:49.888Z,14.80
2022-08-27T06:02:52.069Z,17.60
2022-08-27T06:08:54.929Z,17.63
2022-08-27T06:14:57.442Z,17.80
2022-08-27T06:20:59.587Z,14.87
2022-08-27T06:27:01.698Z,16.33
2022-08-27T06:33:03.719Z,22.37
2022-08-27T06:39:07.919Z,22.00
2022-08-27T06:45:11.110Z,20.73
2022-08-27T06:51:32.822Z,23.47
2022-08-27T06:57:34.792Z,24.03
2022-08-27T07:03:37.029Z,21.30
2022-08-27T07:09:39.194Z,18.77
2022-08-27T07:15:41.887Z,21.17
2022-08-27T07:21:44.425Z,25.33
2022-08-27T07:27:50.297Z,17.60
2022-08-27T07:33:53.392Z,20.83
2022-08-27T07:39:55.507Z,16.97
2022-08-27T07:46:02.308Z,26.47
2022-08-27T07:52:04.819Z,21.87
2022-08-27T07:58:11.562Z,24.10
2022-08-27T08:04:19.982Z,17.83
2022-08-27T08:10:23.359Z,19.80
2022-08-27T08:16:31.049Z,15.27
2022-08-27T08:22:33.955Z,21.97
2022-08-27T08:28:37.105Z,15.73
2022-08-27T08:34:39.192Z,16.87
2022-08-27T08:40:45.972Z,17.07
2022-08-27T08:46:55.870Z,14.37
2022-08-27T08:53:44.603Z,11.93
2022-08-27T09:00:01.257Z,13.13
2022-08-27T09:06:21.116Z,10.60
2022-08-27T09:12:30.130Z,9.33
2022-08-27T09:18:37.231Z,9.30
2022-08-27T09:25:06.316Z,10.70
2022-08-27T09:31:14.606Z,10.10
2022-08-27T09:37:44.018Z,17.77
2022-08-27T09:44:07.299Z,12.47
2022-08-27T09:50:10.684Z,13.60
2022-08-27T09:56:34.096Z,9.73
2022-08-27T10:02:36.119Z,19.83
2022-08-27T10:08:50.568Z,17.70
2022-08-27T10:14:58.966Z,10.83
2022-08-27T10:21:33.982Z,16.30
2022-08-27T10:27:57.840Z,18.43
2022-08-27T10:34:17.811Z,15.07
2022-08-27T10:40:42.661Z,9.17
2022-08-27T10:47:23.778Z,8.40
2022-08-27T10:54:07.114Z,10.70
2022-08-27T11:00:21.194Z,7.17
2022-08-27T11:06:51.076Z,10.10
2022-08-27T11:12:59.987Z,12.53
2022-08-27T11:19:42.437Z,12.10
2022-08-27T11:26:02.445Z,11.43
2022-08-27T11:32:22.505Z,12.83
2022-08-27T11:38:55.485Z,7.67
2022-08-27T11:45:06.860Z,7.90
2022-08-27T11:51:14.444Z,12.27
2022-08-27T11:57:34.711Z,8.53
2022-08-27T12:03:37.108Z,9.13
2022-08-27T12:09:58.066Z,14.83
2022-08-27T12:16:12.719Z,10.23
2022-08-27T12:23:32.554Z,8.43
2022-08-27T12:29:50.099Z,13.90
2022-08-27T12:35:54.610Z,10.70
2022-08-27T12:41:58.060Z,10.10
2022-08-27T12:48:00.194Z,11.67
2022-08-27T12:54:30.231Z,13.40
2022-08-27T13:01:06.522Z,9.17
2022-08-27T13:07:08.873Z,10.63
2022-08-27T13:13:20.442Z,11.60
2022-08-27T13:19:36.009Z,12.87
2022-08-27T13:25:38.041Z,9.93
2022-08-27T13:31:40.678Z,13.57
2022-08-27T13:37:49.512Z,6.00
2022-08-27T13:43:55.811Z,11.63
2022-08-27T13:50:11.922Z,14.00
2022-08-27T13:56:36.813Z,13.23
2022-08-27T14:02:38.936Z,12.63
2022-08-27T14:08:41.167Z,14.30
2022-08-27T14:14:43.252Z,16.60
2022-08-27T14:20:45.263Z,13.07
2022-08-27T14:27:08.394Z,12.03
2022-08-27T14:33:11.406Z,15.73
2022-08-27T14:39:13.760Z,11.37
2022-08-27T14:45:15.929Z,14.20
2022-08-27T14:51:29.588Z,13.70
2022-08-27T14:57:31.847Z,12.10
2022-08-27T15:03:39.295Z,8.27
2022-08-27T15:09:41.332Z,9.90
2022-08-27T15:15:43.712Z,8.93
2022-08-27T15:21:48.857Z,11.30
2022-08-27T15:27:52.647Z,9.50
2022-08-27T15:33:56.230Z,7.27
2022-08-27T15:39:58.330Z,8.53
2022-08-27T15:46:02.595Z,11.13
2022-08-27T15:52:05.293Z,12.27
2022-08-27T15:58:08.867Z,5.80
2022-08-27T16:04:10.908Z,9.10
2022-08-27T16:10:14.528Z,7.67
2022-08-27T16:16:21.088Z,6.90
2022-08-27T16:22:23.463Z,11.50
2022-08-27T16:28:26.006Z,6.17
2022-08-27T16:34:28.783Z,3.60
2022-08-27T16:40:33.845Z,13.50
2022-08-27T16:46:36.012Z,9.20
2022-08-27T16:52:38.071Z,9.00
2022-08-27T16:58:40.003Z,9.80
2022-08-27T17:04:43.672Z,5.60
2022-08-27T17:10:50.948Z,8.50
2022-08-27T17:16:54.068Z,12.63
2022-08-27T17:22:56.545Z,11.00
2022-08-27T17:28:59.836Z,7.43
2022-08-27T17:35:05.919Z,7.53
2022-08-27T17:41:14.689Z,10.93
2022-08-27T17:47:16.739Z,8.30
2022-08-27T17:53:18.722Z,10.20
2022-08-27T17:59:20.738Z,17.17
2022-08-27T18:05:25.671Z,12.73
2022-08-27T18:11:27.928Z,10.20
2022-08-27T18:17:29.888Z,9.30
2022-08-27T18:23:33.958Z,13.93
2022-08-27T18:29:35.932Z,10.37
2022-08-27T18:35:39.696Z,12.03
2022-08-27T18:41:42.054Z,8.00
2022-08-27T18:47:44.821Z,7.70
2022-08-27T18:53:48.704Z,18.60
2022-08-27T18:59:50.769Z,8.87
2022-08-27T19:05:54.947Z,6.80
2022-08-27T19:11:58.077Z,8.20
2022-08-27T19:18:04.422Z,12.33
2022-08-27T19:24:07.348Z,9.07
2022-08-27T19:30:11.524Z,9.70
2022-08-27T19:36:17.361Z,8.03
2022-08-27T19:42:19.354Z,7.83
2022-08-27T19:48:21.352Z,10.20
2022-08-27T19:54:23.397Z,10.77
2022-08-27T20:00:34.518Z,9.50
2022-08-27T20:06:36.533Z,12.20
2022-08-27T20:12:38.737Z,11.03
2022-08-27T20:18:40.734Z,9.27
2022-08-27T20:24:42.796Z,10.47
2022-08-27T20:30:45.100Z,10.80
2022-08-27T20:36:52.686Z,7.80
2022-08-27T20:42:56.212Z,11.13
2022-08-27T20:48:59.085Z,8.47
2022-08-27T20:55:01.286Z,7.23
2022-08-27T21:01:03.581Z,9.23
2022-08-27T21:07:06.169Z,11.13
2022-08-27T21:13:10.899Z,8.53
2022-08-27T21:19:14.422Z,19.47
2022-08-27T21:25:16.438Z,9.47
2022-08-27T21:31:18.426Z,9.47
2022-08-27T21:37:20.488Z,9.40
2022-08-27T21:43:22.795Z,12.87
2022-08-27T21:49:24.797Z,6.10
2022-08-27T21:55:26.975Z,12.07
2022-08-27T22:01:29.162Z,12.77
2022-08-27T22:07:31.182Z,11.70
2022-08-27T22:13:33.820Z,13.47
2022-08-27T22:19:35.769Z,6.67
2022-08-27T22:25:38.081Z,10.67
2022-08-27T22:31:40.558Z,4.87
2022-08-27T22:37:44.046Z,8.37
2022-08-27T22:43:47.306Z,7.13
2022-08-27T22:49:50.533Z,9.30
2022-08-27T22:55:56.424Z,13.60
2022-08-27T23:01:59.430Z,9.90
2022-08-27T23:08:01.914Z,10.03
2022-08-27T23:14:04.377Z,8.87
2022-08-27T23:20:09.327Z,5.83
2022-08-27T23:26:30.224Z,11.70
2022-08-27T23:32:32.263Z,14.37
2022-08-27T23:38:34.377Z,8.17
2022-08-27T23:44:36.910Z,9.07
2022-08-27T23:50:40.190Z,9.57
2022-08-27T23:56:42.277Z,8.33
